Time;durP1;ratioP1;P1;durP2;ratioP2;P2;SDS_P1;SDS_P2;PMS_P1;PMS_P2;Temp;Humidity;BMP_temperature;BMP_pressure;BME280_temperature;BME280_humidity;BME280_pressure;Samples;Min_cycle;Max_cycle;Signal;HPM_P1;HPM_P2
2023/12/18 00:01:27;;;;;;;32.72;11.98;;;;;;;;;;5034463;28;20049;-72
2023/12/18 00:03:53;;;;;;;31.40;11.80;;;;;;;;;;5034580;28;20045;-71
2023/12/18 00:06:19;;;;;;;30.35;12.10;;;;;;;;;;5016810;28;20080;-72
2023/12/18 00:08:45;;;;;;;32.33;12.07;;;;;;;;;;5034278;28;20076;-71
2023/12/18 00:11:11;;;;;;;33.95;12.80;;;;;;;;;;5016441;28;20058;-72
2023/12/18 00:13:37;;;;;;;29.08;11.20;;;;;;;;;;5035047;28;20060;-73
2023/12/18 00:16:03;;;;;;;34.03;13.00;;;;;;;;;;5034125;28;20049;-70
2023/12/18 00:18:29;;;;;;;33.40;11.77;;;;;;;;;;5034283;28;20140;-72
2023/12/18 00:20:56;;;;;;;33.83;12.77;;;;;;;;;;5034856;28;20053;-71
2023/12/18 00:23:22;;;;;;;35.25;13.00;;;;;;;;;;5016482;28;20072;-72
2023/12/18 00:25:48;;;;;;;40.08;14.60;;;;;;;;;;5017139;28;20049;-73
2023/12/18 00:28:14;;;;;;;25.98;11.13;;;;;;;;;;5016718;28;20471;-72
2023/12/18 00:30:41;;;;;;;32.55;12.38;;;;;;;;;;5034029;28;20107;-72
2023/12/18 00:33:08;;;;;;;29.60;12.15;;;;;;;;;;5016610;28;20053;-73
2023/12/18 00:35:34;;;;;;;30.25;11.40;;;;;;;;;;5034253;28;20053;-73
2023/12/18 00:38:00;;;;;;;28.42;11.10;;;;;;;;;;5016538;28;20053;-71
2023/12/18 00:40:26;;;;;;;33.08;12.38;;;;;;;;;;5033977;28;20132;-71
2023/12/18 00:42:53;;;;;;;35.95;12.57;;;;;;;;;;5033449;28;20106;-73
2023/12/18 00:45:19;;;;;;;27.63;11.80;;;;;;;;;;5016201;28;20090;-72
2023/12/18 00:47:45;;;;;;;36.70;12.32;;;;;;;;;;5033607;28;20049;-72
2023/12/18 00:50:11;;;;;;;35.45;12.32;;;;;;;;;;5016131;28;20049;-71
2023/12/18 00:52:37;;;;;;;37.35;12.50;;;;;;;;;;5033886;28;20386;-73
2023/12/18 00:55:03;;;;;;;27.02;12.18;;;;;;;;;;4999784;28;20042;-72
2023/12/18 00:57:30;;;;;;;35.63;12.13;;;;;;;;;;5033447;28;20042;-72
2023/12/18 00:59:56;;;;;;;29.38;12.27;;;;;;;;;;5016560;28;20045;-72
2023/12/18 01:02:22;;;;;;;30.77;12.05;;;;;;;;;;5033408;28;20134;-72
2023/12/18 01:04:48;;;;;;;35.58;14.25;;;;;;;;;;5033338;28;20046;-71
2023/12/18 01:07:14;;;;;;;35.75;12.80;;;;;;;;;;5033383;28;20046;-73
2023/12/18 01:09:40;;;;;;;36.42;12.38;;;;;;;;;;5033401;28;20171;-72
2023/12/18 01:12:07;;;;;;;40.03;13.30;;;;;;;;;;5033979;28;20054;-73
2023/12/18 01:14:33;;;;;;;35.40;12.55;;;;;;;;;;5033004;28;20099;-72
2023/12/18 01:16:59;;;;;;;32.65;11.98;;;;;;;;;;5016195;28;20458;-71
2023/12/18 01:19:25;;;;;;;35.85;13.25;;;;;;;;;;5032078;28;20045;-71
2023/12/18 01:21:51;;;;;;;29.65;12.60;;;;;;;;;;5032040;28;20076;-72
2023/12/18 01:24:18;;;;;;;37.28;13.35;;;;;;;;;;5033989;28;20056;-72
2023/12/18 01:26:44;;;;;;;36.38;12.85;;;;;;;;;;5016166;28;20045;-73
2023/12/18 01:29:10;;;;;;;30.73;12.40;;;;;;;;;;4999708;28;20437;-72
2023/12/18 01:31:36;;;;;;;40.33;13.38;;;;;;;;;;5033292;28;20050;-72
2023/12/18 01:34:02;;;;;;;31.08;11.65;;;;;;;;;;5033124;28;20085;-73
2023/12/18 01:36:28;;;;;;;32.55;12.35;;;;;;;;;;5000308;28;20471;-73
2023/12/18 01:38:54;;;;;;;39.70;13.32;;;;;;;;;;5031895;28;20041;-72
2023/12/18 01:41:20;;;;;;;38.00;13.30;;;;;;;;;;5033451;28;20088;-73
2023/12/18 01:43:47;;;;;;;30.58;13.40;;;;;;;;;;5032995;28;20048;-71
2023/12/18 01:46:17;;;;;;;33.17;13.35;;;;;;;;;;4999478;28;20050;-72
2023/12/18 01:48:43;;;;;;;35.85;13.27;;;;;;;;;;5033959;28;20130;-73
2023/12/18 01:51:09;;;;;;;32.40;12.60;;;;;;;;;;5048341;28;20060;-72
2023/12/18 01:53:39;;;;;;;36.80;14.90;;;;;;;;;;5015895;28;20060;-72
2023/12/18 01:56:06;;;;;;;33.25;13.10;;;;;;;;;;5035273;28;20168;-72
2023/12/18 01:58:34;;;;;;;42.13;14.98;;;;;;;;;;5052197;28;20099;-71
2023/12/18 02:01:01;;;;;;;33.50;13.52;;;;;;;;;;5019004;28;20049;-72
2023/12/18 02:03:29;;;;;;;38.53;14.10;;;;;;;;;;5019840;28;20055;-72
2023/12/18 02:05:58;;;;;;;40.15;13.20;;;;;;;;;;5019279;28;20049;-72
2023/12/18 02:08:25;;;;;;;36.53;14.00;;;;;;;;;;5018989;28;20065;-72
2023/12/18 02:10:51;;;;;;;34.25;13.75;;;;;;;;;;5051623;28;20403;-73
2023/12/18 02:13:18;;;;;;;39.97;14.18;;;;;;;;;;5019254;28;20406;-74
2023/12/18 02:15:44;;;;;;;36.25;15.57;;;;;;;;;;5036176;28;20498;-73
2023/12/18 02:18:10;;;;;;;35.35;13.95;;;;;;;;;;5036422;28;20394;-72
2023/12/18 02:20:36;;;;;;;37.42;14.63;;;;;;;;;;5019535;28;20123;-73
2023/12/18 02:23:02;;;;;;;36.55;14.68;;;;;;;;;;5018578;28;20045;-72
2023/12/18 02:25:28;;;;;;;38.25;14.38;;;;;;;;;;5003365;28;20367;-72
2023/12/18 02:27:54;;;;;;;32.67;13.95;;;;;;;;;;5036895;28;20080;-72
2023/12/18 02:30:24;;;;;;;38.35;15.23;;;;;;;;;;5036282;28;20045;-71
2023/12/18 02:32:50;;;;;;;32.42;13.48;;;;;;;;;;5003324;28;20056;-71
2023/12/18 02:35:17;;;;;;;35.40;15.07;;;;;;;;;;5036245;28;20399;-73
2023/12/18 02:37:43;;;;;;;26.48;13.25;;;;;;;;;;5036281;28;20410;-73
2023/12/18 02:40:09;;;;;;;37.88;14.05;;;;;;;;;;5036620;28;20442;-74
2023/12/18 02:42:35;;;;;;;35.38;14.73;;;;;;;;;;5051525;28;20387;-73
2023/12/18 02:45:02;;;;;;;44.13;16.05;;;;;;;;;;5018712;28;20463;-72
2023/12/18 02:47:28;;;;;;;36.75;14.63;;;;;;;;;;5036422;28;20069;-72
2023/12/18 02:49:55;;;;;;;38.33;15.30;;;;;;;;;;5018384;28;20049;-73
2023/12/18 02:52:21;;;;;;;32.75;13.98;;;;;;;;;;5035781;28;20084;-72
2023/12/18 02:54:47;;;;;;;38.00;15.93;;;;;;;;;;5018673;28;20108;-72
2023/12/18 02:57:13;;;;;;;39.53;14.63;;;;;;;;;;5018503;28;20042;-73
2023/12/18 02:59:39;;;;;;;36.55;14.55;;;;;;;;;;5035716;28;20081;-73
2023/12/18 03:02:05;;;;;;;39.70;15.10;;;;;;;;;;5035502;28;20049;-72
2023/12/18 03:04:31;;;;;;;36.60;15.10;;;;;;;;;;5035909;28;20367;-74
2023/12/18 03:06:58;;;;;;;34.80;14.43;;;;;;;;;;5017970;28;20045;-72
2023/12/18 03:09:24;;;;;;;35.03;12.48;;;;;;;;;;5035471;28;20049;-72
2023/12/18 03:11:50;;;;;;;33.88;14.73;;;;;;;;;;5035721;28;20088;-73
2023/12/18 03:14:16;;;;;;;36.28;15.90;;;;;;;;;;5017939;28;20038;-72
2023/12/18 03:16:42;;;;;;;31.50;13.70;;;;;;;;;;5035351;28;20080;-71
2023/12/18 03:19:08;;;;;;;32.72;13.68;;;;;;;;;;5035456;28;20128;-72
2023/12/18 03:21:34;;;;;;;36.83;14.38;;;;;;;;;;5019047;28;20103;-73
2023/12/18 03:24:00;;;;;;;34.38;14.50;;;;;;;;;;5050671;28;20092;-71
2023/12/18 03:26:26;;;;;;;38.58;15.20;;;;;;;;;;5036144;28;20137;-73
2023/12/18 03:28:55;;;;;;;34.75;15.43;;;;;;;;;;5035615;28;20045;-72
2023/12/18 03:31:23;;;;;;;33.70;14.75;;;;;;;;;;5018264;28;20045;-72
2023/12/18 03:33:49;;;;;;;44.03;14.55;;;;;;;;;;5023430;28;20132;-73
2023/12/18 03:36:15;;;;;;;35.40;15.25;;;;;;;;;;5029531;28;20057;-71
2023/12/18 03:38:41;;;;;;;31.95;14.57;;;;;;;;;;5052980;28;20135;-72
2023/12/18 03:41:07;;;;;;;33.45;14.65;;;;;;;;;;5035838;28;20491;-73
2023/12/18 03:43:33;;;;;;;37.03;15.20;;;;;;;;;;5035098;28;20061;-73
2023/12/18 03:46:00;;;;;;;38.05;14.63;;;;;;;;;;5035162;28;20045;-73
2023/12/18 03:48:26;;;;;;;32.42;13.73;;;;;;;;;;5017942;28;20518;-73
2023/12/18 03:50:52;;;;;;;36.90;14.02;;;;;;;;;;5035227;28;20394;-72
2023/12/18 03:53:18;;;;;;;33.90;13.38;;;;;;;;;;5034973;28;20088;-73
2023/12/18 03:55:44;;;;;;;38.88;15.63;;;;;;;;;;5001339;28;20080;-72
2023/12/18 03:58:10;;;;;;;37.85;14.77;;;;;;;;;;5017493;28;20059;-72
2023/12/18 04:00:36;;;;;;;34.00;12.38;;;;;;;;;;5017580;28;20049;-73
2023/12/18 04:03:05;;;;;;;35.60;14.80;;;;;;;;;;5035408;28;20068;-72
2023/12/18 04:05:31;;;;;;;36.30;14.43;;;;;;;;;;5035630;28;20049;-73
2023/12/18 04:07:58;;;;;;;36.25;13.35;;;;;;;;;;5017333;28;20045;-73
2023/12/18 04:10:24;;;;;;;38.30;13.35;;;;;;;;;;5017914;28;20128;-74
2023/12/18 04:12:50;;;;;;;36.10;14.60;;;;;;;;;;5050917;28;20392;-73
2023/12/18 04:15:16;;;;;;;31.67;13.98;;;;;;;;;;5049619;28;20517;-74
2023/12/18 04:17:42;;;;;;;32.38;14.15;;;;;;;;;;5034406;28;20060;-73
2023/12/18 04:20:08;;;;;;;34.28;14.32;;;;;;;;;;5016851;28;20053;-73
2023/12/18 04:22:34;;;;;;;32.35;13.90;;;;;;;;;;5016927;28;20394;-72
2023/12/18 04:25:00;;;;;;;29.55;12.98;;;;;;;;;;5017214;28;20140;-73
2023/12/18 04:27:26;;;;;;;31.83;12.95;;;;;;;;;;5017016;28;20045;-72
2023/12/18 04:29:53;;;;;;;30.95;12.32;;;;;;;;;;5017041;28;20056;-73
2023/12/18 04:32:19;;;;;;;32.08;13.40;;;;;;;;;;5016876;28;20556;-75
2023/12/18 04:34:45;;;;;;;37.13;14.10;;;;;;;;;;5034444;28;20132;-72
2023/12/18 04:37:13;;;;;;;26.05;12.27;;;;;;;;;;5016850;28;20053;-72
2023/12/18 04:39:39;;;;;;;37.45;14.07;;;;;;;;;;5034305;28;20041;-73
2023/12/18 04:42:05;;;;;;;27.75;11.27;;;;;;;;;;5049313;28;20533;-73
2023/12/18 04:44:31;;;;;;;31.83;12.95;;;;;;;;;;5034593;28;20087;-73
2023/12/18 04:46:57;;;;;;;36.38;13.23;;;;;;;;;;5036596;28;20120;-71
2023/12/18 04:49:25;;;;;;;30.45;13.25;;;;;;;;;;5028562;28;20045;-72
2023/12/18 04:51:51;;;;;;;31.30;13.38;;;;;;;;;;5021418;28;20052;-73
2023/12/18 04:54:18;;;;;;;37.33;12.55;;;;;;;;;;5017192;28;20139;-72
2023/12/18 04:56:45;;;;;;;36.45;14.23;;;;;;;;;;5016363;28;20124;-74
2023/12/18 04:59:11;;;;;;;33.15;12.90;;;;;;;;;;5034682;28;20395;-72
2023/12/18 05:01:37;;;;;;;30.52;13.73;;;;;;;;;;5033914;28;20057;-72
2023/12/18 05:04:04;;;;;;;30.77;13.93;;;;;;;;;;5034426;28;20425;-73
2023/12/18 05:06:30;;;;;;;26.20;12.40;;;;;;;;;;5033684;28;20049;-74
2023/12/18 05:08:56;;;;;;;24.60;11.77;;;;;;;;;;5033721;28;20055;-73
2023/12/18 05:11:24;;;;;;;39.10;15.45;;;;;;;;;;5034107;28;20061;-79
2023/12/18 05:13:50;;;;;;;29.48;12.68;;;;;;;;;;5000147;28;20065;-73
2023/12/18 05:16:16;;;;;;;30.95;13.45;;;;;;;;;;5016396;28;20084;-72
2023/12/18 05:18:43;;;;;;;32.58;12.80;;;;;;;;;;4999624;28;20135;-72
2023/12/18 05:21:10;;;;;;;31.13;13.15;;;;;;;;;;5033181;28;20541;-75
2023/12/18 05:23:37;;;;;;;26.13;11.55;;;;;;;;;;5016511;28;20380;-76
2023/12/18 05:26:03;;;;;;;33.83;13.30;;;;;;;;;;5038597;28;20522;-73
2023/12/18 05:28:29;;;;;;;33.78;12.35;;;;;;;;;;5028338;28;20095;-72
2023/12/18 05:30:56;;;;;;;29.50;12.53;;;;;;;;;;5020690;28;20394;-74
2023/12/18 05:33:22;;;;;;;28.10;11.32;;;;;;;;;;5020982;28;20049;-73
2023/12/18 05:35:48;;;;;;;30.13;13.20;;;;;;;;;;5020313;28;20041;-74
2023/12/18 05:38:14;;;;;;;32.03;12.95;;;;;;;;;;5003754;28;20052;-73
2023/12/18 05:40:40;;;;;;;34.08;12.68;;;;;;;;;;5036418;28;20073;-73
2023/12/18 05:43:06;;;;;;;28.02;12.02;;;;;;;;;;5019443;28;20474;-74
2023/12/18 05:45:32;;;;;;;33.95;12.48;;;;;;;;;;5020349;28;20053;-73
2023/12/18 05:47:59;;;;;;;27.40;12.20;;;;;;;;;;5020054;28;20041;-72
2023/12/18 05:50:25;;;;;;;36.40;12.25;;;;;;;;;;5037521;28;20284;-73
2023/12/18 05:52:51;;;;;;;33.85;13.55;;;;;;;;;;5037848;28;20084;-72
2023/12/18 05:55:18;;;;;;;29.77;13.82;;;;;;;;;;5037920;28;20045;-74
2023/12/18 05:57:44;;;;;;;30.88;13.05;;;;;;;;;;5037591;28;20049;-73
2023/12/18 06:00:10;;;;;;;22.60;9.40;;;;;;;;;;5037734;28;20201;-72
2023/12/18 06:02:37;;;;;;;34.80;12.55;;;;;;;;;;5038403;28;20053;-72
2023/12/18 06:05:03;;;;;;;27.90;12.23;;;;;;;;;;5048161;28;20052;-74
2023/12/18 06:07:30;;;;;;;33.85;12.40;;;;;;;;;;5044996;28;20045;-76
2023/12/18 06:09:56;;;;;;;31.40;12.50;;;;;;;;;;5036962;28;20053;-75
2023/12/18 06:12:22;;;;;;;27.73;11.85;;;;;;;;;;5037556;28;20096;-73
2023/12/18 06:14:48;;;;;;;32.65;13.82;;;;;;;;;;5018705;28;20053;-73
2023/12/18 06:17:14;;;;;;;33.70;12.90;;;;;;;;;;5036614;28;20091;-73
2023/12/18 06:19:40;;;;;;;32.28;13.63;;;;;;;;;;5036638;28;20053;-73
2023/12/18 06:22:08;;;;;;;35.45;14.38;;;;;;;;;;5019807;28;20485;-72
2023/12/18 06:24:34;;;;;;;33.38;13.85;;;;;;;;;;5018735;28;20045;-73
2023/12/18 06:27:00;;;;;;;32.38;13.05;;;;;;;;;;5019505;28;20053;-73
2023/12/18 06:29:27;;;;;;;31.98;13.13;;;;;;;;;;5036505;28;20045;-73
2023/12/18 06:31:53;;;;;;;31.15;13.65;;;;;;;;;;5019203;28;20053;-74
2023/12/18 06:34:19;;;;;;;36.38;14.43;;;;;;;;;;5036317;28;20056;-73
2023/12/18 06:36:45;;;;;;;35.13;14.13;;;;;;;;;;5036985;28;20045;-72
2023/12/18 06:39:12;;;;;;;31.00;13.90;;;;;;;;;;5019531;28;20053;-73
2023/12/18 06:41:38;;;;;;;31.77;13.27;;;;;;;;;;5035734;28;20052;-72
2023/12/18 06:44:04;;;;;;;31.52;14.80;;;;;;;;;;5018331;28;20140;-72
2023/12/18 06:46:32;;;;;;;29.92;13.70;;;;;;;;;;5036355;28;20414;-73
2023/12/18 06:48:58;;;;;;;33.75;14.10;;;;;;;;;;5018676;28;20501;-72
2023/12/18 06:51:25;;;;;;;30.13;12.35;;;;;;;;;;5036142;28;20045;-73
2023/12/18 06:53:51;;;;;;;31.67;13.98;;;;;;;;;;5018840;28;20084;-73
2023/12/18 06:56:17;;;;;;;34.55;13.55;;;;;;;;;;5036232;28;20089;-73
2023/12/18 06:58:46;;;;;;;33.17;14.98;;;;;;;;;;5036038;28;20056;-72
2023/12/18 07:01:17;;;;;;;36.22;14.05;;;;;;;;;;5017932;28;20048;-73
2023/12/18 07:03:43;;;;;;;38.78;14.68;;;;;;;;;;5019000;28;20430;-71
2023/12/18 07:06:10;;;;;;;31.90;14.18;;;;;;;;;;5034586;28;20097;-73
2023/12/18 07:08:36;;;;;;;39.47;14.47;;;;;;;;;;5036365;28;20137;-73
2023/12/18 07:11:03;;;;;;;35.75;14.63;;;;;;;;;;5040077;28;20054;-73
2023/12/18 07:13:29;;;;;;;34.70;13.90;;;;;;;;;;5048515;28;20224;-72
2023/12/18 07:15:55;;;;;;;32.63;13.55;;;;;;;;;;5020474;28;20045;-73
2023/12/18 07:18:21;;;;;;;33.70;14.47;;;;;;;;;;5036131;28;20050;-73
2023/12/18 07:20:47;;;;;;;30.10;13.23;;;;;;;;;;5017996;28;20487;-73
2023/12/18 07:23:14;;;;;;;32.50;14.43;;;;;;;;;;5018152;28;20045;-73
2023/12/18 07:25:41;;;;;;;35.47;14.88;;;;;;;;;;5018304;28;20053;-79
2023/12/18 07:28:10;;;;;;;33.65;14.10;;;;;;;;;;5017776;28;20056;-72
2023/12/18 07:30:37;;;;;;;33.80;14.63;;;;;;;;;;5035443;28;20045;-72
2023/12/18 07:33:03;;;;;;;36.47;14.50;;;;;;;;;;5035304;28;20402;-73
2023/12/18 07:35:29;;;;;;;42.03;15.13;;;;;;;;;;5017783;28;20049;-74
2023/12/18 07:37:55;;;;;;;36.60;14.38;;;;;;;;;;5035262;28;20049;-72
2023/12/18 07:40:21;;;;;;;33.45;14.65;;;;;;;;;;5017581;28;20053;-72
2023/12/18 07:42:47;;;;;;;39.20;15.90;;;;;;;;;;5018297;28;20045;-73
2023/12/18 07:45:13;;;;;;;35.90;15.88;;;;;;;;;;5035042;28;20049;-73
2023/12/18 07:47:41;;;;;;;38.63;15.27;;;;;;;;;;5035772;28;20191;-74
2023/12/18 07:50:07;;;;;;;;;;;;;;;;;;5002475;28;20068;-73
2023/12/18 07:52:33;;;;;;;40.40;14.73;;;;;;;;;;5035624;28;20353;-73
2023/12/18 07:54:59;;;;;;;33.15;14.70;;;;;;;;;;5052419;28;20045;-74
2023/12/18 07:57:25;;;;;;;40.17;15.45;;;;;;;;;;5047220;28;20053;-72
2023/12/18 07:59:51;;;;;;;39.30;15.35;;;;;;;;;;5050847;28;20549;-73
2023/12/18 08:02:17;;;;;;;38.42;15.15;;;;;;;;;;5020800;28;20053;-72
2023/12/18 08:04:43;;;;;;;34.10;13.65;;;;;;;;;;5034878;28;20037;-73
2023/12/18 08:07:10;;;;;;;42.70;16.02;;;;;;;;;;5001099;28;20059;-73
2023/12/18 08:09:36;;;;;;;34.10;15.30;;;;;;;;;;5017799;28;20049;-73
2023/12/18 08:12:02;;;;;;;36.17;15.43;;;;;;;;;;5016740;28;20120;-72
2023/12/18 08:14:28;;;;;;;27.40;11.85;;;;;;;;;;5034743;28;20398;-72
2023/12/18 08:16:55;;;;;;;38.00;16.63;;;;;;;;;;5017042;28;20053;-73
2023/12/18 08:19:21;;;;;;;34.03;14.98;;;;;;;;;;5016849;28;20049;-72
2023/12/18 08:21:47;;;;;;;36.22;15.82;;;;;;;;;;5001212;28;20137;-73
2023/12/18 08:24:13;;;;;;;34.83;14.65;;;;;;;;;;5019284;28;20153;-72
2023/12/18 08:26:39;;;;;;;41.47;15.32;;;;;;;;;;5034360;28;20045;-71
2023/12/18 08:29:05;;;;;;;39.85;15.18;;;;;;;;;;5034829;28;20049;-72
2023/12/18 08:31:31;;;;;;;32.00;13.40;;;;;;;;;;5034613;28;20106;-73
2023/12/18 08:33:58;;;;;;;39.22;16.00;;;;;;;;;;5034865;28;20131;-73
2023/12/18 08:36:24;;;;;;;39.05;14.88;;;;;;;;;;5000581;28;20057;-72
2023/12/18 08:38:50;;;;;;;39.67;14.95;;;;;;;;;;5016601;28;20056;-77
2023/12/18 08:41:16;;;;;;;35.63;15.60;;;;;;;;;;5034610;28;20072;-72
2023/12/18 08:43:43;;;;;;;35.00;14.88;;;;;;;;;;5034059;28;20041;-73
2023/12/18 08:46:09;;;;;;;38.50;15.25;;;;;;;;;;5016142;28;20041;-73
2023/12/18 08:48:35;;;;;;;42.25;15.85;;;;;;;;;;5033750;28;20126;-73
2023/12/18 08:51:01;;;;;;;36.42;14.70;;;;;;;;;;5016433;28;20052;-72
2023/12/18 08:53:27;;;;;;;36.65;14.60;;;;;;;;;;5033723;28;20483;-72
2023/12/18 08:55:53;;;;;;;37.70;15.63;;;;;;;;;;5033748;28;20060;-72
2023/12/18 08:58:21;;;;;;;37.75;14.50;;;;;;;;;;5033721;28;20088;-73
2023/12/18 09:00:47;;;;;;;36.65;16.38;;;;;;;;;;5033757;28;20053;-73
2023/12/18 09:03:13;;;;;;;37.70;15.50;;;;;;;;;;5000001;28;20096;-73
2023/12/18 09:05:39;;;;;;;37.15;14.88;;;;;;;;;;5033479;28;20049;-73
2023/12/18 09:08:05;;;;;;;33.10;15.63;;;;;;;;;;5033698;28;20045;-72
2023/12/18 09:10:33;;;;;;;35.88;16.02;;;;;;;;;;5000151;28;20045;-72
2023/12/18 09:12:59;;;;;;;36.10;15.15;;;;;;;;;;5016649;28;20057;-73
2023/12/18 09:15:25;;;;;;;41.03;15.90;;;;;;;;;;5000113;28;20064;-72
2023/12/18 09:17:51;;;;;;;36.05;14.68;;;;;;;;;;5032520;28;20099;-73
2023/12/18 09:20:17;;;;;;;40.97;16.00;;;;;;;;;;5016262;28;20045;-72
2023/12/18 09:22:46;;;;;;;35.88;15.35;;;;;;;;;;5033640;28;20049;-73
2023/12/18 09:25:12;;;;;;;38.08;16.05;;;;;;;;;;5016276;28;20049;-73
2023/12/18 09:27:38;;;;;;;41.28;15.65;;;;;;;;;;5033428;28;20081;-72
2023/12/18 09:30:05;;;;;;;35.05;16.45;;;;;;;;;;5015912;28;20053;-72
2023/12/18 09:32:31;;;;;;;;;;;;;;;;;;5033784;28;20053;-73
2023/12/18 09:34:57;;;;;;;40.28;16.60;;;;;;;;;;5033544;28;19928;-78
2023/12/18 09:37:25;;;;;;;28.38;12.45;;;;;;;;;;5016233;28;20080;-73
2023/12/18 09:39:51;;;;;;;41.78;16.25;;;;;;;;;;5000327;28;20107;-71
2023/12/18 09:42:17;;;;;;;37.30;15.80;;;;;;;;;;5033377;28;20049;-73
2023/12/18 09:44:44;;;;;;;37.47;16.27;;;;;;;;;;5033139;28;20099;-73
2023/12/18 09:47:10;;;;;;;39.25;16.10;;;;;;;;;;5031567;28;20498;-73
2023/12/18 09:49:37;;;;;;;40.72;15.70;;;;;;;;;;5033430;28;20095;-71
2023/12/18 09:52:06;;;;;;;33.95;15.88;;;;;;;;;;5015926;28;20076;-73
2023/12/18 09:54:33;;;;;;;49.22;18.08;;;;;;;;;;5015404;28;20398;-72
2023/12/18 09:57:02;;;;;;;39.92;17.10;;;;;;;;;;4999563;28;20049;-73
2023/12/18 09:59:28;;;;;;;41.88;16.92;;;;;;;;;;4999381;28;20041;-72
2023/12/18 10:01:54;;;;;;;49.60;19.53;;;;;;;;;;5015668;28;20073;-74
2023/12/18 10:04:21;;;;;;;41.40;16.75;;;;;;;;;;5016015;28;20131;-72
2023/12/18 10:06:48;;;;;;;37.33;16.60;;;;;;;;;;5015691;28;20540;-73
2023/12/18 10:09:15;;;;;;;34.05;15.10;;;;;;;;;;5048382;28;20284;-74
2023/12/18 10:11:44;;;;;;;39.03;16.42;;;;;;;;;;5015682;28;20101;-73
2023/12/18 10:14:14;;;;;;;38.50;16.42;;;;;;;;;;5015464;28;20179;-73
2023/12/18 10:16:40;;;;;;;42.83;20.90;;;;;;;;;;5000338;28;20085;-73
2023/12/18 10:19:06;;;;;;;42.50;15.97;;;;;;;;;;5036577;28;20057;-73
2023/12/18 10:21:33;;;;;;;40.05;17.05;;;;;;;;;;5036778;28;20143;-72
2023/12/18 10:23:59;;;;;;;40.20;19.35;;;;;;;;;;5040358;28;20041;-73
2023/12/18 10:26:25;;;;;;;41.17;18.10;;;;;;;;;;5046473;28;20053;-73
2023/12/18 10:28:52;;;;;;;35.90;15.15;;;;;;;;;;5042523;28;20144;-72
2023/12/18 10:31:18;;;;;;;38.00;17.50;;;;;;;;;;5020323;28;20095;-73
2023/12/18 10:33:45;;;;;;;39.22;16.48;;;;;;;;;;5036698;28;20052;-73
2023/12/18 10:36:11;;;;;;;38.85;16.63;;;;;;;;;;5036390;28;20095;-72
2023/12/18 10:38:39;;;;;;;42.17;17.08;;;;;;;;;;5036926;28;20094;-71
2023/12/18 10:41:07;;;;;;;43.45;17.17;;;;;;;;;;5018555;28;20064;-71
2023/12/18 10:43:35;;;;;;;37.50;16.67;;;;;;;;;;5019959;28;20128;-72
2023/12/18 10:46:02;;;;;;;42.13;19.27;;;;;;;;;;5036334;28;20054;-71
2023/12/18 10:48:28;;;;;;;40.78;17.52;;;;;;;;;;5036078;28;20046;-72
2023/12/18 10:50:58;;;;;;;43.42;16.25;;;;;;;;;;5018810;28;20494;-73
2023/12/18 10:53:24;;;;;;;40.38;16.13;;;;;;;;;;5036242;28;20045;-73
2023/12/18 10:55:51;;;;;;;37.10;16.92;;;;;;;;;;5036086;28;20128;-72
2023/12/18 10:58:18;;;;;;;36.92;15.35;;;;;;;;;;5035860;28;20053;-72
2023/12/18 11:00:44;;;;;;;39.67;17.30;;;;;;;;;;5018225;28;20045;-72
2023/12/18 11:03:12;;;;;;;43.85;17.42;;;;;;;;;;5018263;28;20442;-74
2023/12/18 11:05:39;;;;;;;42.58;16.20;;;;;;;;;;5035997;28;20049;-72
2023/12/18 11:08:05;;;;;;;39.58;17.45;;;;;;;;;;5018147;28;20047;-73
2023/12/18 11:10:31;;;;;;;41.73;15.93;;;;;;;;;;5036204;28;20058;-74
2023/12/18 11:13:21;;;;;;;35.90;16.75;;;;;;;;;;5050920;28;20292;-72
2023/12/18 11:15:55;;;;;;;38.38;17.27;;;;;;;;;;5030141;28;20061;-73
2023/12/18 11:18:27;;;;;;;38.03;15.00;;;;;;;;;;5035630;28;20045;-71
2023/12/18 11:20:53;;;;;;;37.17;16.55;;;;;;;;;;5035550;28;20088;-73
2023/12/18 11:23:19;;;;;;;45.20;15.63;;;;;;;;;;5035327;28;20542;-73
2023/12/18 11:25:49;;;;;;;35.97;16.23;;;;;;;;;;5050642;28;20364;-73
2023/12/18 11:28:16;;;;;;;37.28;18.88;;;;;;;;;;5035730;28;20045;-72
2023/12/18 11:30:43;;;;;;;39.93;16.67;;;;;;;;;;5018051;28;20038;-74
2023/12/18 11:33:10;;;;;;;36.05;15.90;;;;;;;;;;5035497;28;20099;-73
2023/12/18 11:35:37;;;;;;;37.15;14.57;;;;;;;;;;5017565;28;20049;-73
2023/12/18 11:38:06;;;;;;;31.63;15.48;;;;;;;;;;5017347;28;20049;-72
2023/12/18 11:40:33;;;;;;;41.63;15.32;;;;;;;;;;5002256;28;20053;-73
2023/12/18 11:42:59;;;;;;;38.35;15.60;;;;;;;;;;5035262;28;20049;-72
2023/12/18 11:45:26;;;;;;;32.70;14.63;;;;;;;;;;5034068;28;20045;-73
2023/12/18 11:47:52;;;;;;;33.58;15.30;;;;;;;;;;5035454;28;20056;-73
2023/12/18 11:50:24;;;;;;;41.00;16.70;;;;;;;;;;5035105;28;20095;-72
2023/12/18 11:52:50;;;;;;;37.15;15.60;;;;;;;;;;5038389;28;20060;-71
2023/12/18 11:55:35;;;;;;;33.55;14.80;;;;;;;;;;5036475;28;20049;-77
2023/12/18 11:58:01;;;;;;;35.33;14.63;;;;;;;;;;5034626;28;20564;-72
2023/12/18 12:00:29;;;;;;;31.58;15.50;;;;;;;;;;5034906;28;20099;-71
2023/12/18 12:02:56;;;;;;;38.20;16.00;;;;;;;;;;5034512;28;20560;-72
2023/12/18 12:05:22;;;;;;;33.63;14.85;;;;;;;;;;5034791;28;20049;-72
2023/12/18 12:07:52;;;;;;;38.67;15.38;;;;;;;;;;5000995;28;20417;-73
2023/12/18 12:10:18;;;;;;;33.33;14.90;;;;;;;;;;5034694;28;20049;-73
2023/12/18 12:12:45;;;;;;;39.35;14.93;;;;;;;;;;5034520;28;20053;-73
2023/12/18 12:15:11;;;;;;;35.93;14.90;;;;;;;;;;5034423;28;20128;-72
2023/12/18 12:17:37;;;;;;;33.92;14.32;;;;;;;;;;5017739;28;20053;-73
2023/12/18 12:20:10;;;;;;;32.97;14.07;;;;;;;;;;5034668;28;20498;-73
2023/12/18 12:22:36;;;;;;;33.10;15.52;;;;;;;;;;5033981;28;20514;-72
2023/12/18 12:25:02;;;;;;;34.55;14.60;;;;;;;;;;5016884;28;20386;-73
2023/12/18 12:27:29;;;;;;;30.45;12.98;;;;;;;;;;5034182;28;20049;-72
2023/12/18 12:29:55;;;;;;;28.15;13.45;;;;;;;;;;5017516;28;20176;-73
2023/12/18 12:32:21;;;;;;;35.78;14.27;;;;;;;;;;5017504;28;20077;-77
2023/12/18 12:34:49;;;;;;;34.78;14.68;;;;;;;;;;5016467;28;20103;-73
2023/12/18 12:37:16;;;;;;;37.75;14.70;;;;;;;;;;5034133;28;20057;-72
2023/12/18 12:39:59;;;;;;;41.40;15.13;;;;;;;;;;5016290;28;20093;-73
2023/12/18 12:42:26;;;;;;;32.28;14.18;;;;;;;;;;5033919;28;20060;-72
2023/12/18 12:44:52;;;;;;;35.50;15.18;;;;;;;;;;5033869;28;20045;-73
2023/12/18 12:47:18;;;;;;;28.90;11.77;;;;;;;;;;5016208;28;20054;-73
2023/12/18 12:49:48;;;;;;;30.70;13.40;;;;;;;;;;5016570;28;20475;-74
2023/12/18 12:52:18;;;;;;;34.00;13.57;;;;;;;;;;5034445;28;20087;-73
2023/12/18 12:54:47;;;;;;;33.15;13.23;;;;;;;;;;5024998;28;20092;-74
2023/12/18 12:57:14;;;;;;;30.13;13.43;;;;;;;;;;5044433;28;20056;-73
2023/12/18 12:59:53;;;;;;;29.00;14.00;;;;;;;;;;5020217;28;20085;-74
2023/12/18 13:02:20;;;;;;;30.98;14.20;;;;;;;;;;5006078;28;20056;-72
2023/12/18 13:04:48;;;;;;;33.13;12.98;;;;;;;;;;5019527;28;20056;-73
2023/12/18 13:07:15;;;;;;;26.25;12.55;;;;;;;;;;5049764;28;20056;-72
2023/12/18 13:09:41;;;;;;;33.78;13.80;;;;;;;;;;5034415;28;20128;-73
2023/12/18 13:12:08;;;;;;;31.10;12.93;;;;;;;;;;5016055;28;20050;-73
2023/12/18 13:14:34;;;;;;;27.90;12.75;;;;;;;;;;5016670;28;20037;-72
2023/12/18 13:17:01;;;;;;;34.20;13.73;;;;;;;;;;5033698;28;20045;-72
2023/12/18 13:19:27;;;;;;;37.65;12.98;;;;;;;;;;5016391;28;20049;-72
2023/12/18 13:21:53;;;;;;;31.50;10.97;;;;;;;;;;5016109;28;20103;-72
2023/12/18 13:24:19;;;;;;;30.67;12.95;;;;;;;;;;5033651;28;20042;-73
2023/12/18 13:26:45;;;;;;;33.03;13.25;;;;;;;;;;5033643;28;20049;-74
2023/12/18 13:29:11;;;;;;;27.67;12.38;;;;;;;;;;5034150;28;20046;-73
2023/12/18 13:31:37;;;;;;;33.30;12.52;;;;;;;;;;5033578;28;20091;-72
2023/12/18 13:34:03;;;;;;;27.38;12.82;;;;;;;;;;5033790;28;20038;-71
2023/12/18 13:36:30;;;;;;;23.15;11.95;;;;;;;;;;5033713;28;20053;-76
2023/12/18 13:38:57;;;;;;;28.67;12.52;;;;;;;;;;5033691;28;20075;-71
2023/12/18 13:41:32;;;;;;;32.85;12.43;;;;;;;;;;5016293;28;20053;-72
2023/12/18 13:43:59;;;;;;;35.40;12.18;;;;;;;;;;5033409;28;20064;-72
2023/12/18 13:46:26;;;;;;;30.17;12.15;;;;;;;;;;5033302;28;20045;-74
2023/12/18 13:48:52;;;;;;;32.63;11.97;;;;;;;;;;5016610;28;20085;-72
2023/12/18 13:51:18;;;;;;;28.75;11.90;;;;;;;;;;5033753;28;20056;-72
2023/12/18 13:53:44;;;;;;;32.28;12.88;;;;;;;;;;5035752;28;20041;-73
2023/12/18 13:56:11;;;;;;;36.08;12.90;;;;;;;;;;5019476;28;20083;-73
2023/12/18 13:58:37;;;;;;;29.35;11.85;;;;;;;;;;5036956;28;20128;-73
2023/12/18 14:01:04;;;;;;;31.73;13.05;;;;;;;;;;5035884;28;20054;-73
2023/12/18 14:03:30;;;;;;;27.63;14.33;;;;;;;;;;5019150;28;20042;-72
2023/12/18 14:05:56;;;;;;;29.63;12.67;;;;;;;;;;5020430;28;20294;-73
2023/12/18 14:08:23;;;;;;;28.15;12.48;;;;;;;;;;5019845;28;20078;-72
2023/12/18 14:10:51;;;;;;;29.67;13.23;;;;;;;;;;5036818;28;20068;-75
2023/12/18 14:13:17;;;;;;;30.63;12.68;;;;;;;;;;5019663;28;20045;-72
2023/12/18 14:15:45;;;;;;;37.80;13.57;;;;;;;;;;5053293;28;20049;-74